Nature
Eilat Airport (ETH/LLET) is an Israeli airport located in the city of Eilat and named for Arkia Airlines founder Yakov Hozman (Jacob Housman). Eilat Airport is located in the central area of the city, next to Route 90 (The Arava Road). It mostly handles domestic flights to Tel Aviv and Haifa with international flights operating instead to Uvda International Airport. Eilat Airport is the southernmost airport in the State of Israel. The Eilat Airport was established in 1949 and currently averages about 1,424,098 and 19,392 aircraft per year. At Eilat Airport you can find a single runway (21/03).

Scenery:

SimDownloadSizeAuthor
P3D & FSXLLET Eilat33.3MBFreewareISP
P3D & FSXICVFR Eilat Scenery73.8MBFreewareChris Bell

Charts:

File Name
GeneralAerodrome Chart
GroundParkings Chart
CVFREntry / Exit Routes (CVFR)
CVFREntry / exit routes (CVFR), using an east approach
DepartureSAMAR1A, SAMAR1B RWY 21/03
CVFRTraffic Pattrens Chart
ApproachKITOR Y VIS RWY 21
ApproachNESICHA VIS RWY 03

METAR & TAF:

Available data for LLET from the past hour
ELAT/J. HOZMAN(A
Metar
LLET 191250Z 04011KT CAVOK 21/03 Q1021 RMK FEW080

12:50 UTC

Wind: 40° 11kt

Visibility:

Sky:

Temp: 21 deg C / 69.8 deg F

Dewpoint: 3 deg C / 37.4 deg F

Pressure: 1021 hPa

TAF
TAF LLET 191119Z 1912/2012 03010KT CAVOK BECMG 1915/1917 33010KT BECMG 2004/2006 03010KT TX20/1913Z TN11/2004Z